sensor_id;sensor_type;location;lat;lon;timestamp;pressure;altitude;pressure_sealevel;temperature;humidity
71970;BME280;59838;52.152;5.436;2022-11-24T00:01:04;100329.81;;;6.65;100.00
71970;BME280;59838;52.152;5.436;2022-11-24T00:03:31;100339.16;;;6.66;100.00
71970;BME280;59838;52.152;5.436;2022-11-24T00:06:06;100338.84;;;6.69;100.00
71970;BME280;59838;52.152;5.436;2022-11-24T00:08:34;100328.19;;;6.72;100.00
71970;BME280;59838;52.152;5.436;2022-11-24T00:11:05;100323.47;;;6.76;100.00
71970;BME280;59838;52.152;5.436;2022-11-24T00:13:32;100321.81;;;6.83;100.00
71970;BME280;59838;52.152;5.436;2022-11-24T00:16:13;100346.16;;;6.89;100.00
71970;BME280;59838;52.152;5.436;2022-11-24T00:18:41;100364.53;;;6.94;100.00
71970;BME280;59838;52.152;5.436;2022-11-24T00:21:08;100372.09;;;6.95;100.00
71970;BME280;59838;52.152;5.436;2022-11-24T00:23:35;100364.34;;;6.95;100.00
71970;BME280;59838;52.152;5.436;2022-11-24T00:26:13;100369.69;;;6.94;100.00
71970;BME280;59838;52.152;5.436;2022-11-24T00:28:42;100366.47;;;6.92;100.00
71970;BME280;59838;52.152;5.436;2022-11-24T00:31:29;100368.56;;;6.88;100.00
71970;BME280;59838;52.152;5.436;2022-11-24T00:33:58;100360.53;;;6.83;100.00
71970;BME280;59838;52.152;5.436;2022-11-24T00:36:28;100366.84;;;6.81;100.00
71970;BME280;59838;52.152;5.436;2022-11-24T00:38:56;100364.28;;;6.81;100.00
71970;BME280;59838;52.152;5.436;2022-11-24T00:41:24;100366.03;;;6.80;100.00
71970;BME280;59838;52.152;5.436;2022-11-24T00:43:51;100367.31;;;6.84;100.00
71970;BME280;59838;52.152;5.436;2022-11-24T00:46:18;100366.81;;;6.89;100.00
71970;BME280;59838;52.152;5.436;2022-11-24T00:48:45;100370.03;;;6.91;100.00
71970;BME280;59838;52.152;5.436;2022-11-24T00:51:13;100370.69;;;6.85;100.00
71970;BME280;59838;52.152;5.436;2022-11-24T00:53:40;100372.03;;;6.81;100.00
71970;BME280;59838;52.152;5.436;2022-11-24T00:56:08;100379.09;;;6.78;100.00
71970;BME280;59838;52.152;5.436;2022-11-24T00:58:35;100379.47;;;6.75;100.00
71970;BME280;59838;52.152;5.436;2022-11-24T01:01:19;100382.06;;;6.75;100.00
71970;BME280;59838;52.152;5.436;2022-11-24T01:03:46;100390.94;;;6.73;100.00
71970;BME280;59838;52.152;5.436;2022-11-24T01:06:16;100393.69;;;6.71;100.00
71970;BME280;59838;52.152;5.436;2022-11-24T01:08:44;100404.16;;;6.70;100.00
71970;BME280;59838;52.152;5.436;2022-11-24T01:11:23;100407.09;;;6.67;100.00
71970;BME280;59838;52.152;5.436;2022-11-24T01:13:52;100402.41;;;6.62;100.00
71970;BME280;59838;52.152;5.436;2022-11-24T01:16:32;100401.63;;;6.62;100.00
71970;BME280;59838;52.152;5.436;2022-11-24T01:19:00;100403.72;;;6.58;100.00
71970;BME280;59838;52.152;5.436;2022-11-24T01:21:26;100405.19;;;6.52;100.00
71970;BME280;59838;52.152;5.436;2022-11-24T01:23:53;100411.50;;;6.50;100.00
71970;BME280;59838;52.152;5.436;2022-11-24T01:26:21;100406.66;;;6.47;100.00
71970;BME280;59838;52.152;5.436;2022-11-24T01:28:52;100412.16;;;6.44;100.00
71970;BME280;59838;52.152;5.436;2022-11-24T01:31:19;100413.75;;;6.45;100.00
71970;BME280;59838;52.152;5.436;2022-11-24T01:33:46;100402.47;;;6.46;100.00
71970;BME280;59838;52.152;5.436;2022-11-24T01:36:13;100407.16;;;6.42;100.00
71970;BME280;59838;52.152;5.436;2022-11-24T01:38:39;100418.13;;;6.44;100.00
71970;BME280;59838;52.152;5.436;2022-11-24T01:41:13;100411.69;;;6.40;100.00
71970;BME280;59838;52.152;5.436;2022-11-24T01:43:41;100410.25;;;6.37;100.00
71970;BME280;59838;52.152;5.436;2022-11-24T01:49:19;100415.25;;;6.31;100.00
71970;BME280;59838;52.152;5.436;2022-11-24T01:51:54;100418.97;;;6.28;100.00
71970;BME280;59838;52.152;5.436;2022-11-24T01:54:31;100425.75;;;6.29;100.00
71970;BME280;59838;52.152;5.436;2022-11-24T01:57:05;100415.25;;;6.31;100.00
71970;BME280;59838;52.152;5.436;2022-11-24T01:59:34;100420.88;;;6.34;100.00
71970;BME280;59838;52.152;5.436;2022-11-24T02:02:01;100429.09;;;6.38;100.00
71970;BME280;59838;52.152;5.436;2022-11-24T02:04:31;100433.59;;;6.44;100.00
71970;BME280;59838;52.152;5.436;2022-11-24T02:07:00;100440.06;;;6.48;100.00
71970;BME280;59838;52.152;5.436;2022-11-24T02:09:39;100429.25;;;6.53;100.00
71970;BME280;59838;52.152;5.436;2022-11-24T02:12:08;100422.75;;;6.57;100.00
71970;BME280;59838;52.152;5.436;2022-11-24T02:14:37;100433.06;;;6.65;100.00
71970;BME280;59838;52.152;5.436;2022-11-24T02:17:04;100433.34;;;6.70;100.00
71970;BME280;59838;52.152;5.436;2022-11-24T02:22:21;100434.00;;;6.81;100.00
71970;BME280;59838;52.152;5.436;2022-11-24T02:24:55;100437.81;;;6.85;100.00
71970;BME280;59838;52.152;5.436;2022-11-24T02:27:25;100438.94;;;6.90;100.00
71970;BME280;59838;52.152;5.436;2022-11-24T02:29:51;100440.38;;;6.93;100.00
71970;BME280;59838;52.152;5.436;2022-11-24T02:32:18;100443.28;;;6.98;100.00
71970;BME280;59838;52.152;5.436;2022-11-24T02:34:45;100440.00;;;7.04;100.00
71970;BME280;59838;52.152;5.436;2022-11-24T02:37:12;100444.84;;;7.07;100.00
71970;BME280;59838;52.152;5.436;2022-11-24T02:39:38;100447.41;;;7.07;100.00
71970;BME280;59838;52.152;5.436;2022-11-24T02:42:07;100453.56;;;7.06;100.00
71970;BME280;59838;52.152;5.436;2022-11-24T02:44:43;100456.78;;;7.08;100.00
71970;BME280;59838;52.152;5.436;2022-11-24T02:47:11;100456.47;;;7.11;100.00
71970;BME280;59838;52.152;5.436;2022-11-24T02:49:38;100464.19;;;7.11;100.00
71970;BME280;59838;52.152;5.436;2022-11-24T02:52:06;100454.03;;;7.10;100.00
71970;BME280;59838;52.152;5.436;2022-11-24T02:54:33;100452.88;;;7.12;100.00
71970;BME280;59838;52.152;5.436;2022-11-24T02:57:00;100452.09;;;7.12;100.00
71970;BME280;59838;52.152;5.436;2022-11-24T02:59:27;100466.13;;;7.09;100.00
71970;BME280;59838;52.152;5.436;2022-11-24T03:01:53;100460.97;;;7.09;100.00
71970;BME280;59838;52.152;5.436;2022-11-24T03:04:20;100451.63;;;7.08;100.00
71970;BME280;59838;52.152;5.436;2022-11-24T03:06:46;100454.84;;;7.10;100.00
71970;BME280;59838;52.152;5.436;2022-11-24T03:09:13;100448.81;;;7.18;100.00
71970;BME280;59838;52.152;5.436;2022-11-24T03:11:39;100445.28;;;7.19;100.00
71970;BME280;59838;52.152;5.436;2022-11-24T03:14:06;100456.41;;;7.20;100.00
71970;BME280;59838;52.152;5.436;2022-11-24T03:16:33;100446.72;;;7.22;100.00
71970;BME280;59838;52.152;5.436;2022-11-24T03:19:00;100455.91;;;7.24;100.00
71970;BME280;59838;52.152;5.436;2022-11-24T03:21:27;100462.50;;;7.27;100.00
71970;BME280;59838;52.152;5.436;2022-11-24T03:23:53;100469.63;;;7.25;100.00
71970;BME280;59838;52.152;5.436;2022-11-24T03:26:21;100467.84;;;7.25;100.00
71970;BME280;59838;52.152;5.436;2022-11-24T03:28:48;100456.53;;;7.26;100.00
71970;BME280;59838;52.152;5.436;2022-11-24T03:31:15;100468.31;;;7.29;100.00
71970;BME280;59838;52.152;5.436;2022-11-24T03:33:42;100461.38;;;7.29;100.00
71970;BME280;59838;52.152;5.436;2022-11-24T03:36:08;100471.69;;;7.29;100.00
71970;BME280;59838;52.152;5.436;2022-11-24T03:38:35;100462.16;;;7.30;100.00
71970;BME280;59838;52.152;5.436;2022-11-24T03:41:01;100459.13;;;7.26;100.00
71970;BME280;59838;52.152;5.436;2022-11-24T03:43:28;100471.41;;;7.24;100.00
71970;BME280;59838;52.152;5.436;2022-11-24T03:45:54;100466.56;;;7.21;100.00
71970;BME280;59838;52.152;5.436;2022-11-24T03:48:21;100468.34;;;7.21;100.00
71970;BME280;59838;52.152;5.436;2022-11-24T03:50:56;100466.75;;;7.20;100.00
71970;BME280;59838;52.152;5.436;2022-11-24T03:53:23;100473.50;;;7.21;100.00
71970;BME280;59838;52.152;5.436;2022-11-24T03:55:51;100473.34;;;7.22;100.00
71970;BME280;59838;52.152;5.436;2022-11-24T03:58:18;100472.53;;;7.22;100.00
71970;BME280;59838;52.152;5.436;2022-11-24T04:00:50;100477.53;;;7.23;100.00
71970;BME280;59838;52.152;5.436;2022-11-24T04:03:17;100485.41;;;7.30;100.00
71970;BME280;59838;52.152;5.436;2022-11-24T04:05:44;100483.66;;;7.30;100.00
71970;BME280;59838;52.152;5.436;2022-11-24T04:08:12;100497.38;;;7.31;100.00
71970;BME280;59838;52.152;5.436;2022-11-24T04:10:38;100490.25;;;7.33;100.00
71970;BME280;59838;52.152;5.436;2022-11-24T04:13:16;100504.63;;;7.36;100.00
71970;BME280;59838;52.152;5.436;2022-11-24T04:15:43;100498.63;;;7.35;100.00
71970;BME280;59838;52.152;5.436;2022-11-24T04:18:11;100503.16;;;7.33;100.00
71970;BME280;59838;52.152;5.436;2022-11-24T04:20:39;100510.94;;;7.33;100.00
71970;BME280;59838;52.152;5.436;2022-11-24T04:23:06;100518.84;;;7.31;100.00
71970;BME280;59838;52.152;5.436;2022-11-24T04:25:33;100513.84;;;7.30;100.00
71970;BME280;59838;52.152;5.436;2022-11-24T04:27:59;100524.50;;;7.27;100.00
71970;BME280;59838;52.152;5.436;2022-11-24T04:30:27;100519.50;;;7.25;100.00
71970;BME280;59838;52.152;5.436;2022-11-24T04:32:54;100523.88;;;7.25;100.00
71970;BME280;59838;52.152;5.436;2022-11-24T04:35:22;100531.63;;;7.25;100.00
71970;BME280;59838;52.152;5.436;2022-11-24T04:37:49;100535.19;;;7.24;100.00
71970;BME280;59838;52.152;5.436;2022-11-24T04:40:16;100540.19;;;7.25;100.00
71970;BME280;59838;52.152;5.436;2022-11-24T04:42:42;100545.19;;;7.27;100.00
71970;BME280;59838;52.152;5.436;2022-11-24T04:45:09;100542.59;;;7.27;100.00
71970;BME280;59838;52.152;5.436;2022-11-24T04:47:36;100543.09;;;7.30;100.00
71970;BME280;59838;52.152;5.436;2022-11-24T04:50:04;100550.03;;;7.30;100.00
71970;BME280;59838;52.152;5.436;2022-11-24T04:52:33;100553.44;;;7.30;100.00
71970;BME280;59838;52.152;5.436;2022-11-24T04:54:59;100556.81;;;7.31;100.00
71970;BME280;59838;52.152;5.436;2022-11-24T04:57:26;100560.34;;;7.30;100.00
71970;BME280;59838;52.152;5.436;2022-11-24T04:59:53;100567.78;;;7.33;100.00
71970;BME280;59838;52.152;5.436;2022-11-24T05:02:20;100573.91;;;7.32;100.00
71970;BME280;59838;52.152;5.436;2022-11-24T05:04:46;100576.50;;;7.32;100.00
71970;BME280;59838;52.152;5.436;2022-11-24T05:07:14;100583.28;;;7.33;100.00
71970;BME280;59838;52.152;5.436;2022-11-24T05:09:45;100588.28;;;7.35;100.00
71970;BME280;59838;52.152;5.436;2022-11-24T05:12:30;100587.66;;;7.32;100.00
71970;BME280;59838;52.152;5.436;2022-11-24T05:15:00;100591.66;;;7.35;100.00
71970;BME280;59838;52.152;5.436;2022-11-24T05:17:35;100594.09;;;7.37;100.00
71970;BME280;59838;52.152;5.436;2022-11-24T05:20:04;100607.50;;;7.40;100.00
71970;BME280;59838;52.152;5.436;2022-11-24T05:22:30;100601.50;;;7.40;100.00
71970;BME280;59838;52.152;5.436;2022-11-24T05:24:57;100605.25;;;7.37;100.00
71970;BME280;59838;52.152;5.436;2022-11-24T05:27:23;100615.09;;;7.33;100.00
71970;BME280;59838;52.152;5.436;2022-11-24T05:29:50;100623.00;;;7.32;100.00
71970;BME280;59838;52.152;5.436;2022-11-24T05:32:16;100626.75;;;7.29;100.00
71970;BME280;59838;52.152;5.436;2022-11-24T05:34:43;100633.03;;;7.27;100.00
71970;BME280;59838;52.152;5.436;2022-11-24T05:37:09;100632.41;;;7.25;100.00
71970;BME280;59838;52.152;5.436;2022-11-24T05:39:36;100643.06;;;7.22;100.00
71970;BME280;59838;52.152;5.436;2022-11-24T05:42:04;100650.34;;;7.18;100.00
71970;BME280;59838;52.152;5.436;2022-11-24T05:44:50;100651.63;;;7.14;100.00
71970;BME280;59838;52.152;5.436;2022-11-24T05:47:17;100654.53;;;7.11;100.00
71970;BME280;59838;52.152;5.436;2022-11-24T05:49:44;100658.28;;;7.08;100.00
71970;BME280;59838;52.152;5.436;2022-11-24T05:52:10;100669.72;;;7.06;100.00
71970;BME280;59838;52.152;5.436;2022-11-24T05:54:37;100678.63;;;7.03;100.00
71970;BME280;59838;52.152;5.436;2022-11-24T05:57:04;100683.97;;;7.02;100.00
71970;BME280;59838;52.152;5.436;2022-11-24T05:59:30;100684.91;;;7.01;100.00
71970;BME280;59838;52.152;5.436;2022-11-24T06:01:56;100694.59;;;6.99;100.00
71970;BME280;59838;52.152;5.436;2022-11-24T06:04:23;100699.94;;;6.97;100.00
71970;BME280;59838;52.152;5.436;2022-11-24T06:06:49;100699.94;;;6.97;99.98
71970;BME280;59838;52.152;5.436;2022-11-24T06:09:16;100706.72;;;6.98;99.90
71970;BME280;59838;52.152;5.436;2022-11-24T06:11:42;100709.47;;;6.97;100.00
71970;BME280;59838;52.152;5.436;2022-11-24T06:14:09;100711.06;;;6.98;100.00
71970;BME280;59838;52.152;5.436;2022-11-24T06:16:36;100714.78;;;6.95;100.00
71970;BME280;59838;52.152;5.436;2022-11-24T06:19:03;100732.72;;;6.97;100.00
71970;BME280;59838;52.152;5.436;2022-11-24T06:21:30;100726.56;;;6.98;100.00
71970;BME280;59838;52.152;5.436;2022-11-24T06:23:57;100732.72;;;6.97;100.00
71970;BME280;59838;52.152;5.436;2022-11-24T06:26:23;100737.06;;;6.96;100.00
71970;BME280;59838;52.152;5.436;2022-11-24T06:28:49;100739.63;;;6.96;100.00
71970;BME280;59838;52.152;5.436;2022-11-24T06:31:16;100744.81;;;6.96;100.00
71970;BME280;59838;52.152;5.436;2022-11-24T06:33:42;100751.59;;;6.97;100.00
71970;BME280;59838;52.152;5.436;2022-11-24T06:36:11;100755.97;;;6.97;100.00
71970;BME280;59838;52.152;5.436;2022-11-24T06:38:38;100757.88;;;6.94;100.00
71970;BME280;59838;52.152;5.436;2022-11-24T06:41:08;100760.31;;;6.96;100.00
71970;BME280;59838;52.152;5.436;2022-11-24T06:43:35;100772.09;;;6.99;100.00
71970;BME280;59838;52.152;5.436;2022-11-24T06:46:02;100776.47;;;6.98;100.00
71970;BME280;59838;52.152;5.436;2022-11-24T06:48:29;100785.00;;;6.99;100.00
71970;BME280;59838;52.152;5.436;2022-11-24T06:51:00;100782.28;;;7.00;100.00
71970;BME280;59838;52.152;5.436;2022-11-24T06:53:31;100785.97;;;6.98;100.00
71970;BME280;59838;52.152;5.436;2022-11-24T06:55:59;100779.38;;;6.95;100.00
71970;BME280;59838;52.152;5.436;2022-11-24T06:58:26;100797.75;;;6.92;100.00
71970;BME280;59838;52.152;5.436;2022-11-24T07:00:53;100804.19;;;6.88;100.00
71970;BME280;59838;52.152;5.436;2022-11-24T07:03:19;100803.22;;;6.81;100.00
71970;BME280;59838;52.152;5.436;2022-11-24T07:05:46;100810.63;;;6.75;100.00
71970;BME280;59838;52.152;5.436;2022-11-24T07:08:13;100818.03;;;6.70;100.00
71970;BME280;59838;52.152;5.436;2022-11-24T07:10:43;100816.75;;;6.66;100.00
71970;BME280;59838;52.152;5.436;2022-11-24T07:13:10;100825.09;;;6.60;100.00
71970;BME280;59838;52.152;5.436;2022-11-24T07:15:36;100824.47;;;6.58;100.00
71970;BME280;59838;52.152;5.436;2022-11-24T07:18:03;100829.63;;;6.58;100.00
71970;BME280;59838;52.152;5.436;2022-11-24T07:20:30;100827.84;;;6.58;100.00
71970;BME280;59838;52.152;5.436;2022-11-24T07:22:57;100843.03;;;6.62;100.00
71970;BME280;59838;52.152;5.436;2022-11-24T07:25:24;100843.66;;;6.64;100.00
71970;BME280;59838;52.152;5.436;2022-11-24T07:27:55;100850.16;;;6.68;100.00
71970;BME280;59838;52.152;5.436;2022-11-24T07:30:22;100850.78;;;6.70;100.00
71970;BME280;59838;52.152;5.436;2022-11-24T07:32:49;100847.09;;;6.72;100.00
71970;BME280;59838;52.152;5.436;2022-11-24T07:35:15;100839.03;;;6.75;100.00
71970;BME280;59838;52.152;5.436;2022-11-24T07:37:43;100851.97;;;6.75;100.00
71970;BME280;59838;52.152;5.436;2022-11-24T07:40:09;100852.44;;;6.79;100.00
71970;BME280;59838;52.152;5.436;2022-11-24T07:42:36;100872.13;;;6.80;100.00
71970;BME280;59838;52.152;5.436;2022-11-24T07:45:02;100877.97;;;6.82;100.00
71970;BME280;59838;52.152;5.436;2022-11-24T07:47:29;100888.28;;;6.82;100.00
71970;BME280;59838;52.152;5.436;2022-11-24T07:49:55;100894.88;;;6.85;100.00
71970;BME280;59838;52.152;5.436;2022-11-24T07:52:21;100899.09;;;6.86;100.00
71970;BME280;59838;52.152;5.436;2022-11-24T07:54:51;100893.94;;;6.86;100.00
71970;BME280;59838;52.152;5.436;2022-11-24T07:57:18;100903.13;;;6.88;100.00
71970;BME280;59838;52.152;5.436;2022-11-24T07:59:44;100907.34;;;6.89;100.00
71970;BME280;59838;52.152;5.436;2022-11-24T08:02:11;100914.94;;;6.91;100.00
71970;BME280;59838;52.152;5.436;2022-11-24T08:04:38;100923.31;;;6.93;100.00
71970;BME280;59838;52.152;5.436;2022-11-24T08:07:04;100922.38;;;6.94;100.00
71970;BME280;59838;52.152;5.436;2022-11-24T08:09:31;100929.97;;;6.95;100.00
71970;BME280;59838;52.152;5.436;2022-11-24T08:11:57;100940.78;;;6.99;100.00
71970;BME280;59838;52.152;5.436;2022-11-24T08:14:23;100940.31;;;7.04;100.00
71970;BME280;59838;52.152;5.436;2022-11-24T08:16:50;100937.59;;;7.05;100.00
71970;BME280;59838;52.152;5.436;2022-11-24T08:19:16;100951.78;;;7.09;100.00
71970;BME280;59838;52.152;5.436;2022-11-24T08:21:43;100944.72;;;7.11;100.00
71970;BME280;59838;52.152;5.436;2022-11-24T08:24:09;100941.16;;;7.12;100.00
71970;BME280;59838;52.152;5.436;2022-11-24T08:26:35;100942.63;;;7.15;100.00
71970;BME280;59838;52.152;5.436;2022-11-24T08:29:02;100947.63;;;7.17;100.00
71970;BME280;59838;52.152;5.436;2022-11-24T08:31:28;100943.09;;;7.19;100.00
71970;BME280;59838;52.152;5.436;2022-11-24T08:34:00;100948.91;;;7.21;100.00
71970;BME280;59838;52.152;5.436;2022-11-24T08:36:27;100948.91;;;7.21;100.00
71970;BME280;59838;52.152;5.436;2022-11-24T08:38:57;100956.84;;;7.19;100.00
71970;BME280;59838;52.152;5.436;2022-11-24T08:41:25;100965.41;;;7.20;100.00
71970;BME280;59838;52.152;5.436;2022-11-24T08:43:52;100962.50;;;7.23;100.00
71970;BME280;59838;52.152;5.436;2022-11-24T08:46:19;100964.13;;;7.32;100.00
71970;BME280;59838;52.152;5.436;2022-11-24T08:48:52;100963.03;;;7.43;100.00
71970;BME280;59838;52.152;5.436;2022-11-24T08:51:24;100967.44;;;7.50;100.00
71970;BME280;59838;52.152;5.436;2022-11-24T08:53:59;100981.47;;;7.56;100.00
71970;BME280;59838;52.152;5.436;2022-11-24T08:56:27;100981.16;;;7.59;100.00
71970;BME280;59838;52.152;5.436;2022-11-24T08:58:55;100987.00;;;7.61;100.00
71970;BME280;59838;52.152;5.436;2022-11-24T09:01:22;100982.00;;;7.60;100.00
71970;BME280;59838;52.152;5.436;2022-11-24T09:03:49;100986.81;;;7.55;100.00
71970;BME280;59838;52.152;5.436;2022-11-24T09:06:18;100991.66;;;7.49;100.00
71970;BME280;59838;52.152;5.436;2022-11-24T09:08:45;100995.84;;;7.42;100.00
71970;BME280;59838;52.152;5.436;2022-11-24T09:11:13;100992.94;;;7.37;100.00
71970;BME280;59838;52.152;5.436;2022-11-24T09:13:40;100995.19;;;7.40;100.00
71970;BME280;59838;52.152;5.436;2022-11-24T09:16:10;101004.88;;;7.46;100.00
71970;BME280;59838;52.152;5.436;2022-11-24T09:18:37;101004.25;;;7.53;100.00
71970;BME280;59838;52.152;5.436;2022-11-24T09:21:08;100998.31;;;7.60;100.00
71970;BME280;59838;52.152;5.436;2022-11-24T09:23:36;101010.91;;;7.63;100.00
71970;BME280;59838;52.152;5.436;2022-11-24T09:26:12;101012.53;;;7.64;100.00
71970;BME280;59838;52.152;5.436;2022-11-24T09:28:40;101014.16;;;7.65;100.00
71970;BME280;59838;52.152;5.436;2022-11-24T09:31:09;101020.78;;;7.68;100.00
71970;BME280;59838;52.152;5.436;2022-11-24T09:33:37;101021.44;;;7.70;100.00
71970;BME280;59838;52.152;5.436;2022-11-24T09:36:05;101025.50;;;7.73;100.00
71970;BME280;59838;52.152;5.436;2022-11-24T09:38:31;101026.13;;;7.75;100.00
71970;BME280;59838;52.152;5.436;2022-11-24T09:41:26;101042.94;;;7.79;100.00
71970;BME280;59838;52.152;5.436;2022-11-24T09:44:21;101038.91;;;7.84;100.00
71970;BME280;59838;52.152;5.436;2022-11-24T09:47:00;101034.22;;;7.88;100.00
71970;BME280;59838;52.152;5.436;2022-11-24T09:49:48;101041.84;;;7.90;100.00
71970;BME280;59838;52.152;5.436;2022-11-24T09:52:31;101054.13;;;7.96;100.00
71970;BME280;59838;52.152;5.436;2022-11-24T09:55:04;101053.81;;;7.99;100.00
71970;BME280;59838;52.152;5.436;2022-11-24T09:57:40;101060.28;;;8.03;100.00
71970;BME280;59838;52.152;5.436;2022-11-24T10:00:11;101060.59;;;8.08;100.00
71970;BME280;59838;52.152;5.436;2022-11-24T10:02:38;101066.44;;;8.10;100.00
71970;BME280;59838;52.152;5.436;2022-11-24T10:05:05;101061.91;;;8.12;100.00
71970;BME280;59838;52.152;5.436;2022-11-24T10:07:37;101069.19;;;8.17;100.00
71970;BME280;59838;52.152;5.436;2022-11-24T10:10:15;101075.66;;;8.21;100.00
71970;BME280;59838;52.152;5.436;2022-11-24T10:15:52;101069.69;;;8.29;100.00
71970;BME280;59838;52.152;5.436;2022-11-24T10:18:29;101079.72;;;8.32;100.00
71970;BME280;59838;52.152;5.436;2022-11-24T10:21:27;101084.25;;;8.38;100.00
71970;BME280;59838;52.152;5.436;2022-11-24T10:26:54;101089.47;;;8.46;100.00
71970;BME280;59838;52.152;5.436;2022-11-24T10:29:33;101094.00;;;8.44;100.00
71970;BME280;59838;52.152;5.436;2022-11-24T10:32:05;101097.88;;;8.48;100.00
71970;BME280;59838;52.152;5.436;2022-11-24T10:34:35;101101.13;;;8.58;100.00
71970;BME280;59838;52.152;5.436;2022-11-24T10:37:22;101110.16;;;8.63;100.00
71970;BME280;59838;52.152;5.436;2022-11-24T10:39:59;101118.91;;;8.62;100.00
71970;BME280;59838;52.152;5.436;2022-11-24T10:42:32;101112.59;;;8.64;100.00
71970;BME280;59838;52.152;5.436;2022-11-24T10:47:36;101113.38;;;8.81;100.00
71970;BME280;59838;52.152;5.436;2022-11-24T10:52:40;101121.31;;;9.04;100.00
71970;BME280;59838;52.152;5.436;2022-11-24T10:55:08;101118.38;;;9.15;99.76
71970;BME280;59838;52.152;5.436;2022-11-24T10:57:37;101120.13;;;9.23;99.10
71970;BME280;59838;52.152;5.436;2022-11-24T11:03:09;101134.97;;;9.38;97.54
71970;BME280;59838;52.152;5.436;2022-11-24T11:05:59;101130.25;;;9.49;97.46
71970;BME280;59838;52.152;5.436;2022-11-24T11:08:29;101126.50;;;9.52;96.96
71970;BME280;59838;52.152;5.436;2022-11-24T11:11:19;101137.53;;;9.46;96.53
71970;BME280;59838;52.152;5.436;2022-11-24T11:13:52;101146.97;;;9.39;95.99
71970;BME280;59838;52.152;5.436;2022-11-24T11:16:52;101139.84;;;9.41;95.57
71970;BME280;59838;52.152;5.436;2022-11-24T11:22:29;101141.88;;;9.62;94.83
71970;BME280;59838;52.152;5.436;2022-11-24T11:27:29;101136.34;;;9.65;94.29
71970;BME280;59838;52.152;5.436;2022-11-24T11:30:16;101130.81;;;9.68;94.21
71970;BME280;59838;52.152;5.436;2022-11-24T11:33:02;101137.94;;;9.74;94.22
71970;BME280;59838;52.152;5.436;2022-11-24T11:35:49;101135.00;;;9.77;93.54
71970;BME280;59838;52.152;5.436;2022-11-24T11:38:15;101135.28;;;9.82;93.86
71970;BME280;59838;52.152;5.436;2022-11-24T11:40:42;101138.19;;;9.87;93.56
71970;BME280;59838;52.152;5.436;2022-11-24T11:43:17;101131.34;;;9.95;93.69
71970;BME280;59838;52.152;5.436;2022-11-24T11:45:58;101125.63;;;9.99;93.14
71970;BME280;59838;52.152;5.436;2022-11-24T11:48:29;101128.03;;;10.01;92.59
71970;BME280;59838;52.152;5.436;2022-11-24T11:54:16;101134.03;;;10.10;91.98
71970;BME280;59838;52.152;5.436;2022-11-24T11:57:00;101125.88;;;10.13;91.99
71970;BME280;59838;52.152;5.436;2022-11-24T11:59:51;101136.56;;;10.18;91.85
71970;BME280;59838;52.152;5.436;2022-11-24T12:10:49;101139.44;;;10.23;90.73
71970;BME280;59838;52.152;5.436;2022-11-24T12:19:31;101133.56;;;10.29;90.80
71970;BME280;59838;52.152;5.436;2022-11-24T12:22:16;101136.16;;;10.29;90.04
71970;BME280;59838;52.152;5.436;2022-11-24T12:24:55;101137.78;;;10.30;90.51
71970;BME280;59838;52.152;5.436;2022-11-24T12:27:37;101131.28;;;10.34;90.10
71970;BME280;59838;52.152;5.436;2022-11-24T12:30:17;101133.53;;;10.37;90.39
71970;BME280;59838;52.152;5.436;2022-11-24T12:33:11;101136.75;;;10.39;90.56
71970;BME280;59838;52.152;5.436;2022-11-24T12:35:43;101137.59;;;10.40;89.45
71970;BME280;59838;52.152;5.436;2022-11-24T12:41:29;101134.00;;;10.41;89.45
71970;BME280;59838;52.152;5.436;2022-11-24T12:47:21;101152.06;;;10.34;89.21
71970;BME280;59838;52.152;5.436;2022-11-24T12:50:02;101149.78;;;10.31;89.36
71970;BME280;59838;52.152;5.436;2022-11-24T12:52:36;101155.63;;;10.33;89.26
71970;BME280;59838;52.152;5.436;2022-11-24T12:55:04;101156.28;;;10.35;88.46
71970;BME280;59838;52.152;5.436;2022-11-24T13:04:00;101168.28;;;10.28;88.28
71970;BME280;59838;52.152;5.436;2022-11-24T13:06:34;101161.34;;;10.29;88.50
71970;BME280;59838;52.152;5.436;2022-11-24T13:09:10;101154.34;;;10.29;88.60
71970;BME280;59838;52.152;5.436;2022-11-24T13:11:51;101153.72;;;10.27;88.67
71970;BME280;59838;52.152;5.436;2022-11-24T13:14:22;101156.47;;;10.25;89.33
71970;BME280;59838;52.152;5.436;2022-11-24T13:16:56;101157.44;;;10.24;88.79
71970;BME280;59838;52.152;5.436;2022-11-24T13:19:43;101148.84;;;10.24;88.51
71970;BME280;59838;52.152;5.436;2022-11-24T13:22:15;101160.22;;;10.23;88.86
71970;BME280;59838;52.152;5.436;2022-11-24T13:24:42;101157.78;;;10.21;89.26
71970;BME280;59838;52.152;5.436;2022-11-24T13:29:43;101153.75;;;10.19;89.34
71970;BME280;59838;52.152;5.436;2022-11-24T13:55:57;101159.03;;;10.02;88.38
71970;BME280;59838;52.152;5.436;2022-11-24T14:01:31;101155.97;;;9.99;88.72
71970;BME280;59838;52.152;5.436;2022-11-24T14:06:59;101150.50;;;9.94;89.54
71970;BME280;59838;52.152;5.436;2022-11-24T14:09:44;101155.38;;;9.88;89.70
71970;BME280;59838;52.152;5.436;2022-11-24T14:12:18;101153.13;;;9.85;89.74
71970;BME280;59838;52.152;5.436;2022-11-24T14:14:47;101141.44;;;9.81;89.89
71970;BME280;59838;52.152;5.436;2022-11-24T14:17:21;101152.16;;;9.78;89.73
71970;BME280;59838;52.152;5.436;2022-11-24T14:19:50;101156.72;;;9.76;89.57
71970;BME280;59838;52.152;5.436;2022-11-24T14:24:55;101147.84;;;9.70;89.94
71970;BME280;59838;52.152;5.436;2022-11-24T14:27:29;101144.75;;;9.67;90.06
71970;BME280;59838;52.152;5.436;2022-11-24T14:30:16;101143.66;;;9.61;90.18
71970;BME280;59838;52.152;5.436;2022-11-24T14:35:31;101131.38;;;9.47;90.63
71970;BME280;59838;52.152;5.436;2022-11-24T14:38:02;101142.59;;;9.39;90.99
71970;BME280;59838;52.152;5.436;2022-11-24T14:40:48;101146.03;;;9.31;91.32